• Join FlightAware (Why Join?)
  • Login
  • US Flag 
Rudolph Flight #1: Arrived! 
03:21AM EST


 

Airport Tracker/Info


-or-


 

Live Flight TrackerFlight Track Log ✈ JBU231 ✈ 18-Aug-2014 ✈ KSLC - KLGB

Flight Track Log - Related Links

Times and Time Zones

All times are in EDT time to prevent confusion due to time zone crossing. See the JBU231 flight status page for this flight to view local times or setup timezone preferences in your user account.

Time Position Orientation Groundspeed Altitude Reporting Facility
EDT Latitude Longitude Course Direction KTS MPH feet Rate Location/Type
01:58PM 40.8153 -111.9792 208° Southwest 170 196 5,200  Level Salt Lake Center
01:58PM 40.8342 -112.0097 309° West 188 216 5,900 1,200 Climbing Salt Lake Center
01:59PM 40.8294 -112.0964 266° West 260 299 7,200 1,860 Climbing Salt Lake Center
02:00PM 40.3988 -112.3337 191° South  Level FlightAware Approximate
02:01PM 40.2893 -112.3738 207° Southwest  Level FlightAware Approximate
02:01PM 40.8150 -112.1983 259° West 273 314 10,000  Level Salt Lake Center
02:02PM 40.1928 -112.4500 180° South  Level FlightAware Approximate
02:02PM 40.7606 -112.2742 227° Southwest 299 344 11,000  Level Salt Lake Center
02:03PM 40.0928 -112.5185 208° Southwest  Level FlightAware Approximate
02:03PM 40.6711 -112.2964 191° South 333 383 11,100  Level Salt Lake Center
02:04PM 40.5772 -112.3094 186° South 342 394 13,700 2,700 Climbing Salt Lake Center
02:05PM 40.4650 -112.3322 189° South 341 392 16,800 2,400 Climbing Salt Lake Center
02:06PM 40.3697 -112.3536 190° South 345 397 18,700 1,560 Climbing Salt Lake Center
02:07PM 40.2719 -112.4058 202° Southwest 386 444 20,100 1,560 Climbing Salt Lake Center
02:08PM 40.1753 -112.4750 209° Southwest 396 456 22,000 1,620 Climbing Salt Lake Center
02:09PM 40.0769 -112.5439 208° Southwest 401 461 23,500 1,620 Climbing Salt Lake Center
02:10PM 39.9772 -112.6144 208° Southwest 407 468 25,400 1,620 Climbing Salt Lake Center
02:11PM 39.8519 -112.7014 208° Southwest 424 488 26,900 1,440 Climbing Salt Lake Center
02:12PM 39.7469 -112.7733 208° Southwest 425 489 28,400 1,200 Climbing Salt Lake Center
02:13PM 39.6347 -112.8358 203° Southwest 435 501 29,500 1,440 Climbing Salt Lake Center
02:14PM 39.5136 -112.8739 194° South 448 516 31,400 1,440 Climbing Salt Lake Center
02:15PM 39.3981 -112.9133 195° South 432 497 32,600 1,200 Climbing Salt Lake Center
02:16PM 39.2575 -112.9594 194° South 433 498 34,000 1,140 Climbing Salt Lake Center
02:17PM 39.1403 -112.9956 193° South 430 495 35,000 480 Climbing Salt Lake Center
02:18PM 39.0281 -113.0375 196° South 427 491 35,000  Level Salt Lake Center
02:19PM 38.9125 -113.0717 193° South 426 490 35,000  Level Salt Lake Center
02:20PM 38.7972 -113.1075 194° South 427 491 35,000 60 Level Salt Lake Center
02:21PM 38.6831 -113.1458 195° South 427 491 35,200 480 Climbing Salt Lake Center
02:22PM 38.5431 -113.1858 193° South 427 491 36,000 360 Climbing Salt Lake Center
02:23PM 38.4283 -113.2217 194° South 427 491 36,000  Level Salt Lake Center
02:24PM 38.3028 -113.2617 194° South 427 491 36,000  Level Salt Lake Center
02:25PM 38.1858 -113.2986 194° South 428 493 36,000  Level Salt Lake Center
02:27PM 38.0692 -113.3353 194° South 431 496 36,000  Level Salt Lake Center
02:28PM 37.9508 -113.3708 193° South 431 496 36,000  Level Salt Lake Center
02:29PM 37.8397 -113.4294 203° Southwest 431 496 36,000  Level Salt Lake Center
02:30PM 37.7419 -113.5128 214° Southwest 429 494 36,000  Level Salt Lake Center
02:31PM 37.6208 -113.6089 212° Southwest 426 490 36,000  Level Salt Lake Center
02:32PM 37.5206 -113.6894 213° Southwest 426 490 36,000  Level Salt Lake Center
02:33PM 37.4181 -113.7689 212° Southwest 427 491 36,000  Level Salt Lake Center
02:34PM 37.3175 -113.8503 213° Southwest 427 491 36,000  Level Salt Lake Center
02:35PM 37.2147 -113.9281 211° Southwest 427 491 36,000  Level Salt Lake Center
02:36PM 37.1147 -114.0075 212° Southwest 427 491 36,000  Level Salt Lake Center
02:37PM 37.0128 -114.0869 212° Southwest 428 493 36,000  Level Salt Lake Center
02:38PM 36.8903 -114.1811 212° Southwest 428 493 36,000  Level Salt Lake Center
02:39PM 36.7881 -114.2606 212° Southwest 428 493 36,000  Level Salt Lake Center
02:40PM 36.6439 -114.3689 211° Southwest 429 494 36,000  Level Los Angeles Center
02:41PM 36.5422 -114.4481 212° Southwest 429 494 36,000  Level Los Angeles Center
02:42PM 36.4386 -114.5267 211° Southwest 430 495 36,000  Level Los Angeles Center
02:43PM 36.3372 -114.6044 212° Southwest 430 495 36,000  Level Los Angeles Center
02:44PM 36.2344 -114.6814 211° Southwest 430 495 36,000  Level Los Angeles Center
02:45PM 36.1331 -114.7592 212° Southwest 430 495 36,000  Level Los Angeles Center
02:47PM 36.0114 -114.8533 212° Southwest 429 494 36,000  Level Los Angeles Center
02:48PM 35.9281 -114.9547 225° Southwest 421 484 36,000  Level Los Angeles Center
02:49PM 35.8497 -115.0622 228° Southwest 420 483 36,000  Level Los Angeles Center
02:50PM 35.7706 -115.1697 228° Southwest 420 483 36,000  Level Los Angeles Center
02:51PM 35.6906 -115.2783 228° Southwest 424 488 36,000  Level Los Angeles Center
02:52PM 35.6103 -115.3856 227° Southwest 424 488 36,000  Level Los Angeles Center
02:53PM 35.5156 -115.5139 228° Southwest 422 486 36,000  Level Los Angeles Center
02:54PM 35.4458 -115.6067 227° Southwest 420 483 36,000 -300 Level Los Angeles Center
02:55PM 35.3675 -115.7100 227° Southwest 418 481 35,500 -720 Descending Los Angeles Center
02:56PM 35.2906 -115.8131 228° Southwest 410 472 34,500 -1,080 Descending Los Angeles Center
02:57PM 35.1961 -115.9383 227° Southwest 413 475 33,300 -1,080 Descending Los Angeles Center
02:58PM 35.1156 -116.0456 227° Southwest 424 488 32,300 -1,020 Descending Los Angeles Center
02:59PM 35.0336 -116.1531 227° Southwest 427 491 31,300 -1,080 Descending Los Angeles Center
03:00PM 34.9508 -116.2617 227° Southwest 434 499 30,100 -1,320 Descending Los Angeles Center
03:01PM 34.8706 -116.3656 227° Southwest 427 491 28,600 -1,560 Descending Los Angeles Center
03:02PM 34.7761 -116.4897 227° Southwest 419 482 26,900 -1,620 Descending Los Angeles Center
03:03PM 34.6886 -116.5964 225° Southwest 438 504 25,300 -1,860 Descending Los Angeles Center
03:04PM 34.5997 -116.7050 225° Southwest 445 512 23,100 -3,540 Descending Los Angeles Center
03:05PM 34.5117 -116.8111 225° Southwest 420 483 18,000 -3,600 Descending Los Angeles Center
03:06PM 34.4392 -116.8992 225° Southwest 395 455 15,600 -2,400 Descending Los Angeles Center
03:07PM 34.3572 -116.9972 225° Southwest 376 433 13,100 -1,260 Descending Los Angeles Center
03:08PM 34.2814 -117.0900 225° Southwest 369 425 13,000 -60 Descending Los Angeles Center
03:09PM 34.1794 -117.1250 196° South 370 426 13,000  Level Los Angeles Center
03:10PM 34.0964 -117.1758 207° Southwest 360 414 13,000 -540 Level Los Angeles Center
03:11PM 34.0083 -117.2325 208° Southwest 355 409 11,900 -1,380 Descending Los Angeles Center
03:12PM 33.9211 -117.2889 208° Southwest 356 410 10,200 -1,680 Descending Los Angeles Center
03:13PM 33.8469 -117.3622 219° Southwest 311 358 8,500 -1,080 Descending Los Angeles Center
03:15PM 33.8069 -117.4417 239° Southwest 280 322 8,000 -240 Descending Los Angeles Center
03:16PM 33.7764 -117.5147 243° Southwest 252 290 8,000 -300 Level Los Angeles Center
03:17PM 33.7797 -117.5958 273° West 246 283 7,400 -840 Descending Los Angeles Center
03:18PM 33.7761 -117.6731 267° West 237 273 6,300 -1,260 Descending Los Angeles Center
03:19PM 33.7369 -117.7550 240° Southwest 237 273 4,800 -1,140 Descending Los Angeles Center
03:20PM 33.7167 -117.8167 248° West 226 260 4,100 -540 Descending Southern California TRACON
03:21PM 33.6833 -117.8833 239° Southwest 226 260 3,800 -540 Descending Southern California TRACON
03:22PM 33.6833 -117.9667 270° West 233 268 3,000 -600 Descending Southern California TRACON
03:23PM 33.7167 -118.0333 301° West 235 270 2,600 -780 Descending Southern California TRACON
03:24PM 33.7500 -118.0833 309° West 213 245 1,600 -1,020 Descending Southern California TRACON
03:25PM 33.7833 -118.1167 320° Northwest 152 175 700 -720 Descending Southern California TRACON
03:26PM 33.8167 -118.1667 309° West 189 217 200 -540 Descending Southern California TRACON